createdAt,value
2023-05-25T00:01:38.524Z,87.14
2023-05-25T00:04:05.187Z,86.56
2023-05-25T00:06:31.579Z,86.63
2023-05-25T00:08:58.120Z,86.42
2023-05-25T00:11:24.630Z,86.91
2023-05-25T00:13:51.124Z,87.81
2023-05-25T00:16:17.605Z,88.01
2023-05-25T00:18:44.024Z,87.91
2023-05-25T00:21:10.475Z,88.27
2023-05-25T00:23:36.998Z,88.71
2023-05-25T00:26:03.554Z,88.57
2023-05-25T00:28:30.299Z,88.53
2023-05-25T00:30:56.673Z,88.50
2023-05-25T00:33:23.102Z,88.47
2023-05-25T00:35:49.577Z,88.54
2023-05-25T00:38:16.008Z,88.56
2023-05-25T00:40:42.558Z,88.99
2023-05-25T00:43:09.040Z,89.63
2023-05-25T00:45:35.515Z,89.55
2023-05-25T00:48:01.988Z,90.31
2023-05-25T00:50:28.416Z,90.52
2023-05-25T00:52:54.919Z,90.50
2023-05-25T00:55:21.355Z,90.96
2023-05-25T00:57:47.905Z,91.29
2023-05-25T01:00:14.361Z,90.82
2023-05-25T01:02:40.849Z,90.87
2023-05-25T01:05:07.238Z,91.33
2023-05-25T01:07:33.650Z,91.74
2023-05-25T01:10:00.252Z,92.13
2023-05-25T01:12:26.587Z,92.19
2023-05-25T01:14:53.134Z,92.58
2023-05-25T01:17:19.573Z,92.19
2023-05-25T01:19:51.893Z,91.97
2023-05-25T01:22:12.645Z,92.06
2023-05-25T01:24:39.057Z,92.60
2023-05-25T01:27:05.518Z,92.92
2023-05-25T01:29:32.025Z,93.01
2023-05-25T01:31:58.677Z,93.31
2023-05-25T01:34:25.111Z,93.73
2023-05-25T01:36:51.647Z,93.57
2023-05-25T01:39:18.064Z,93.61
2023-05-25T01:41:44.616Z,94.00
2023-05-25T01:44:11.141Z,93.71
2023-05-25T01:46:37.680Z,94.01
2023-05-25T01:49:04.003Z,94.40
2023-05-25T01:51:30.538Z,94.98
2023-05-25T01:53:57.089Z,95.44
2023-05-25T01:56:23.626Z,95.64
2023-05-25T01:58:50.060Z,95.76
2023-05-25T02:01:16.632Z,96.12
2023-05-25T02:03:43.131Z,97.15
2023-05-25T02:06:09.586Z,97.75
2023-05-25T02:08:36.081Z,98.11
2023-05-25T02:11:02.561Z,98.31
2023-05-25T02:13:28.990Z,98.60
2023-05-25T02:15:55.412Z,99.02
2023-05-25T02:18:21.831Z,98.23
2023-05-25T02:20:48.287Z,97.33
2023-05-25T02:23:14.802Z,97.25
2023-05-25T02:25:41.266Z,97.24
2023-05-25T02:28:07.770Z,97.13
2023-05-25T02:30:34.185Z,97.04
2023-05-25T02:33:00.657Z,97.63
2023-05-25T02:35:27.049Z,97.98
2023-05-25T02:37:53.521Z,98.27
2023-05-25T02:40:19.933Z,98.20
2023-05-25T02:42:46.480Z,98.53
2023-05-25T02:45:13.108Z,98.84
2023-05-25T02:47:39.686Z,99.62
2023-05-25T02:50:06.070Z,99.74
2023-05-25T02:52:32.596Z,98.55
2023-05-25T02:54:59.036Z,98.21
2023-05-25T02:57:25.466Z,98.75
2023-05-25T02:59:52.009Z,98.74
2023-05-25T03:02:18.543Z,98.14
2023-05-25T03:04:47.375Z,97.75
2023-05-25T03:07:13.881Z,97.22
2023-05-25T03:09:40.404Z,97.56
2023-05-25T03:12:06.858Z,97.58
2023-05-25T03:14:33.355Z,97.64
2023-05-25T03:16:59.911Z,97.32
2023-05-25T03:19:26.235Z,97.08
2023-05-25T03:21:52.776Z,97.25
2023-05-25T03:24:19.202Z,97.20
2023-05-25T03:26:45.577Z,97.16
2023-05-25T03:29:11.922Z,97.26
2023-05-25T03:31:38.357Z,97.34
2023-05-25T03:34:04.715Z,97.49
2023-05-25T03:36:31.090Z,97.47
2023-05-25T03:38:57.450Z,97.29
2023-05-25T03:41:23.831Z,97.08
2023-05-25T03:43:50.193Z,97.05
2023-05-25T03:46:16.670Z,97.04
2023-05-25T03:48:42.954Z,96.84
2023-05-25T03:51:09.319Z,96.48
2023-05-25T03:53:35.699Z,96.08
2023-05-25T03:56:02.084Z,94.93
2023-05-25T03:58:28.482Z,94.29
2023-05-25T04:00:54.828Z,95.06
2023-05-25T04:03:21.325Z,95.44
2023-05-25T04:05:47.570Z,94.86
2023-05-25T04:08:13.928Z,94.45
2023-05-25T04:10:40.394Z,93.71
2023-05-25T04:13:06.800Z,92.55
2023-05-25T04:15:33.301Z,89.68
2023-05-25T04:17:59.784Z,88.73
2023-05-25T04:20:26.112Z,86.96
2023-05-25T04:22:52.397Z,86.75
2023-05-25T04:25:19.816Z,87.52
2023-05-25T04:27:46.203Z,87.49
2023-05-25T04:30:12.555Z,86.09
2023-05-25T04:32:39.053Z,85.83
2023-05-25T04:35:07.825Z,85.11
2023-05-25T04:37:41.242Z,84.65
2023-05-25T04:40:07.687Z,86.28
2023-05-25T04:42:34.102Z,85.81
2023-05-25T04:45:01.031Z,85.19
2023-05-25T04:47:27.573Z,84.33
2023-05-25T04:49:54.133Z,84.05
2023-05-25T04:52:20.519Z,84.20
2023-05-25T04:54:47.056Z,83.17
2023-05-25T04:57:13.625Z,82.44
2023-05-25T04:59:40.169Z,81.67
2023-05-25T05:02:06.584Z,80.68
2023-05-25T05:04:33.096Z,79.61
2023-05-25T05:07:01.920Z,79.41
2023-05-25T05:09:28.350Z,79.53
2023-05-25T05:11:56.067Z,78.79
2023-05-25T05:14:22.476Z,77.39
2023-05-25T05:16:49.017Z,73.99
2023-05-25T05:19:15.781Z,73.89
2023-05-25T05:21:42.232Z,73.33
2023-05-25T05:24:08.675Z,74.07
2023-05-25T05:26:51.862Z,73.64
2023-05-25T05:29:01.738Z,73.93
2023-05-25T05:31:34.327Z,73.59
2023-05-25T05:34:00.769Z,74.02
2023-05-25T05:36:45.198Z,71.68
2023-05-25T05:39:00.986Z,68.15
2023-05-25T05:41:27.403Z,66.06
2023-05-25T05:43:53.819Z,65.04
2023-05-25T05:46:20.273Z,62.26
2023-05-25T05:48:46.813Z,59.80
2023-05-25T05:51:13.254Z,58.51
2023-05-25T05:53:39.723Z,55.75
2023-05-25T05:56:06.137Z,54.52
2023-05-25T05:58:32.625Z,52.94
2023-05-25T06:00:58.958Z,51.42
2023-05-25T06:03:25.747Z,51.44
2023-05-25T06:05:52.141Z,51.59
2023-05-25T06:08:18.602Z,53.06
2023-05-25T06:10:45.042Z,52.75
2023-05-25T06:13:11.512Z,51.22
2023-05-25T06:15:37.946Z,49.91
2023-05-25T06:18:04.529Z,50.86
2023-05-25T06:20:30.984Z,51.43
2023-05-25T06:22:59.676Z,54.23
2023-05-25T06:25:26.152Z,52.12
2023-05-25T06:27:52.565Z,50.55
2023-05-25T06:30:18.988Z,49.82
2023-05-25T06:32:45.461Z,49.71
2023-05-25T06:35:13.284Z,48.41
2023-05-25T06:37:38.385Z,46.95
2023-05-25T06:40:05.235Z,47.63
2023-05-25T06:42:31.653Z,47.71
2023-05-25T06:44:58.077Z,49.11
2023-05-25T06:47:24.573Z,47.63
2023-05-25T06:49:51.059Z,46.69
2023-05-25T06:52:17.478Z,47.24
2023-05-25T06:54:43.939Z,46.39
2023-05-25T06:57:10.341Z,46.84
2023-05-25T06:59:36.960Z,46.64
2023-05-25T07:02:03.423Z,46.40
2023-05-25T07:04:29.894Z,45.99
2023-05-25T07:06:56.310Z,45.14
2023-05-25T07:09:22.758Z,47.25
2023-05-25T07:11:49.202Z,48.06
2023-05-25T07:14:15.725Z,46.84
2023-05-25T07:16:42.264Z,46.94
2023-05-25T07:19:08.653Z,47.14
2023-05-25T07:21:35.096Z,47.66
2023-05-25T07:24:01.937Z,47.82
2023-05-25T07:26:28.398Z,47.57
2023-05-25T07:28:54.971Z,48.89
2023-05-25T07:31:21.559Z,52.67
2023-05-25T07:33:47.936Z,55.33
2023-05-25T07:36:14.375Z,56.84
2023-05-25T07:38:40.836Z,55.83
2023-05-25T07:41:07.291Z,56.58
2023-05-25T07:43:33.712Z,58.39
2023-05-25T07:46:00.142Z,59.28
2023-05-25T07:48:26.544Z,60.67
2023-05-25T07:50:53.091Z,61.82
2023-05-25T07:53:19.693Z,63.13
2023-05-25T07:55:46.345Z,63.31
2023-05-25T07:58:12.598Z,63.95
2023-05-25T08:00:39.075Z,65.96
2023-05-25T08:03:05.670Z,67.41
2023-05-25T08:05:31.983Z,68.14
2023-05-25T08:07:59.061Z,68.60
2023-05-25T08:10:25.511Z,69.74
2023-05-25T08:12:52.745Z,69.45
2023-05-25T08:15:18.436Z,69.78
2023-05-25T08:17:45.174Z,70.74
2023-05-25T08:20:11.378Z,71.08
2023-05-25T08:22:37.765Z,71.69
2023-05-25T08:25:04.196Z,72.16
2023-05-25T08:27:32.278Z,73.11
2023-05-25T08:29:57.494Z,74.13
2023-05-25T08:32:24.027Z,75.41
2023-05-25T08:34:50.452Z,77.14
2023-05-25T08:37:17.004Z,79.62
2023-05-25T08:39:43.584Z,81.83
2023-05-25T08:42:10.046Z,84.45
2023-05-25T08:44:36.518Z,86.87
2023-05-25T08:47:02.948Z,88.10
2023-05-25T08:49:29.541Z,90.36
2023-05-25T08:51:55.931Z,93.56
2023-05-25T08:54:23.785Z,94.72
2023-05-25T08:56:50.817Z,95.07
2023-05-25T08:59:17.220Z,96.43
2023-05-25T09:01:43.761Z,96.58
2023-05-25T09:04:10.224Z,97.23
2023-05-25T09:06:36.634Z,97.47
2023-05-25T09:09:03.099Z,98.39
2023-05-25T09:11:38.616Z,98.45
2023-05-25T09:13:56.016Z,98.88
2023-05-25T09:16:22.519Z,99.16
2023-05-25T09:18:48.921Z,99.53
2023-05-25T09:21:15.380Z,100.00
2023-05-25T09:23:41.845Z,100.00
2023-05-25T09:26:08.330Z,100.00
2023-05-25T09:28:34.795Z,100.00
2023-05-25T09:31:01.207Z,100.00
2023-05-25T09:33:27.678Z,100.00
2023-05-25T09:35:54.094Z,100.00
2023-05-25T09:38:20.798Z,100.00
2023-05-25T09:40:47.420Z,100.00
2023-05-25T09:43:22.049Z,100.00
2023-05-25T09:45:40.078Z,100.00
2023-05-25T09:48:06.550Z,100.00
2023-05-25T09:50:32.985Z,100.00
2023-05-25T09:52:59.402Z,100.00
2023-05-25T09:55:26.513Z,100.00
2023-05-25T09:57:52.420Z,100.00
2023-05-25T10:00:18.927Z,100.00
2023-05-25T10:02:45.420Z,100.00
2023-05-25T10:05:11.950Z,99.36
2023-05-25T10:07:38.452Z,97.84
2023-05-25T10:10:04.917Z,95.82
2023-05-25T10:12:31.361Z,95.00
2023-05-25T10:14:57.785Z,93.23
2023-05-25T10:17:24.491Z,92.25
2023-05-25T10:19:50.936Z,90.50
2023-05-25T10:22:17.288Z,90.35
2023-05-25T10:24:43.689Z,89.08
2023-05-25T10:27:25.280Z,87.98
2023-05-25T10:29:36.719Z,90.49
2023-05-25T10:32:03.145Z,90.61
2023-05-25T10:34:29.703Z,89.00
2023-05-25T10:36:56.193Z,87.03
2023-05-25T10:39:22.666Z,87.12
2023-05-25T10:41:49.067Z,85.79
2023-05-25T10:44:15.599Z,86.11
2023-05-25T10:46:42.102Z,85.21
2023-05-25T10:49:08.539Z,84.29
2023-05-25T10:51:34.985Z,83.45
2023-05-25T10:54:01.558Z,83.86
2023-05-25T10:56:28.015Z,81.77
2023-05-25T10:58:54.509Z,82.63
2023-05-25T11:01:21.019Z,83.92
2023-05-25T11:03:47.479Z,84.64
2023-05-25T11:06:13.852Z,85.23
2023-05-25T11:08:40.303Z,84.13
2023-05-25T11:11:06.729Z,81.97
2023-05-25T11:13:33.778Z,82.18
2023-05-25T11:16:00.115Z,81.33
2023-05-25T11:18:26.658Z,79.09
2023-05-25T11:20:53.076Z,81.65
2023-05-25T11:23:19.540Z,79.99
2023-05-25T11:25:46.263Z,78.89
2023-05-25T11:28:12.601Z,79.53
2023-05-25T11:30:39.397Z,79.60
2023-05-25T11:33:05.979Z,80.00
2023-05-25T11:35:32.316Z,79.48
2023-05-25T11:37:58.794Z,81.04
2023-05-25T11:40:25.311Z,80.42
2023-05-25T11:42:51.710Z,78.54
2023-05-25T11:45:18.151Z,76.98
2023-05-25T11:47:44.653Z,77.35
2023-05-25T11:50:11.125Z,77.29
2023-05-25T11:56:03.755Z,75.58
2023-05-25T11:58:22.833Z,74.39
2023-05-25T12:00:49.290Z,73.55
2023-05-25T12:03:16.137Z,73.72
2023-05-25T12:05:42.768Z,72.22
2023-05-25T12:08:08.957Z,71.64
2023-05-25T12:10:35.474Z,71.24
2023-05-25T12:13:02.017Z,69.05
2023-05-25T12:15:28.500Z,64.90
2023-05-25T12:17:55.042Z,65.86
2023-05-25T12:20:21.549Z,64.79
2023-05-25T12:22:47.990Z,63.02
2023-05-25T12:25:14.419Z,63.92
2023-05-25T12:27:40.918Z,61.06
2023-05-25T12:30:07.313Z,61.80
2023-05-25T12:32:33.800Z,61.24
2023-05-25T12:35:00.290Z,60.35
2023-05-25T12:37:26.791Z,62.66
2023-05-25T12:39:53.212Z,62.68
2023-05-25T12:42:19.669Z,61.66
2023-05-25T12:44:46.567Z,61.09
2023-05-25T12:47:12.856Z,61.07
2023-05-25T12:49:40.410Z,59.89
2023-05-25T12:52:06.874Z,58.03
2023-05-25T12:54:33.287Z,55.57
2023-05-25T12:57:00.761Z,57.06
2023-05-25T12:59:27.215Z,56.93
2023-05-25T13:01:53.648Z,56.42
2023-05-25T13:04:20.115Z,56.88
2023-05-25T13:06:46.580Z,57.71
2023-05-25T13:09:16.360Z,58.38
2023-05-25T13:11:42.817Z,54.67
2023-05-25T13:14:09.280Z,53.25
2023-05-25T13:16:35.780Z,53.52
2023-05-25T13:19:02.430Z,52.87
2023-05-25T13:21:28.867Z,52.97
2023-05-25T13:23:55.324Z,52.27
2023-05-25T13:26:21.825Z,50.84
2023-05-25T13:28:48.310Z,51.08
2023-05-25T13:31:14.766Z,53.07
2023-05-25T13:33:41.192Z,51.02
2023-05-25T13:36:07.695Z,51.60
2023-05-25T13:38:34.052Z,51.33
2023-05-25T13:41:00.496Z,50.91
2023-05-25T13:43:26.922Z,51.13
2023-05-25T13:45:53.613Z,50.47
2023-05-25T13:48:20.133Z,50.15
2023-05-25T13:50:46.643Z,50.35
2023-05-25T13:53:12.903Z,50.00
2023-05-25T13:55:39.359Z,48.47
2023-05-25T13:58:05.821Z,49.65
2023-05-25T14:00:32.262Z,50.55
2023-05-25T14:02:58.814Z,49.52
2023-05-25T14:05:25.109Z,50.03
2023-05-25T14:07:51.619Z,50.79
2023-05-25T14:10:18.219Z,51.15
2023-05-25T14:12:44.695Z,50.78
2023-05-25T14:15:11.443Z,50.37
2023-05-25T14:17:37.960Z,49.86
2023-05-25T14:20:04.657Z,50.40
2023-05-25T14:22:31.012Z,49.45
2023-05-25T14:24:57.423Z,49.55
2023-05-25T14:27:23.837Z,49.45
2023-05-25T14:29:50.269Z,49.27
2023-05-25T14:32:16.701Z,48.32
2023-05-25T14:34:43.191Z,48.32
2023-05-25T14:37:09.607Z,49.11
2023-05-25T14:39:36.185Z,48.93
2023-05-25T14:42:02.643Z,48.91
2023-05-25T14:44:29.264Z,47.94
2023-05-25T14:46:55.694Z,48.69
2023-05-25T14:49:22.074Z,48.17
2023-05-25T14:51:48.534Z,48.20
2023-05-25T14:54:15.007Z,47.72
2023-05-25T14:56:41.466Z,48.63
2023-05-25T14:59:07.894Z,48.17
2023-05-25T15:01:34.342Z,47.36
2023-05-25T15:04:01.111Z,47.75
2023-05-25T15:06:27.470Z,47.25
2023-05-25T15:08:53.970Z,47.36
2023-05-25T15:11:20.474Z,47.67
2023-05-25T15:13:47.350Z,46.63
2023-05-25T15:16:13.949Z,46.72
2023-05-25T15:18:40.382Z,46.63
2023-05-25T15:21:06.869Z,53.05
2023-05-25T15:23:33.360Z,58.12
2023-05-25T15:25:59.750Z,62.92
2023-05-25T15:28:26.386Z,64.34
2023-05-25T15:30:52.876Z,67.72
2023-05-25T15:33:19.322Z,71.58
2023-05-25T15:35:45.973Z,78.47
2023-05-25T15:38:12.398Z,86.93
2023-05-25T15:40:39.334Z,99.70
2023-05-25T15:43:08.134Z,100.00
2023-05-25T15:45:34.584Z,100.00
2023-05-25T15:48:01.042Z,100.00
2023-05-25T15:50:27.466Z,100.00
2023-05-25T15:52:53.902Z,100.00
2023-05-25T15:55:20.318Z,100.00
2023-05-25T15:57:46.785Z,100.00
2023-05-25T16:00:13.333Z,100.00
2023-05-25T16:02:40.033Z,100.00
2023-05-25T16:05:06.484Z,100.00
2023-05-25T16:07:32.932Z,100.00
2023-05-25T16:09:59.464Z,100.00
2023-05-25T16:12:25.946Z,100.00
2023-05-25T16:14:52.352Z,100.00
2023-05-25T16:17:18.864Z,100.00
2023-05-25T16:19:45.282Z,100.00
2023-05-25T16:22:11.728Z,100.00
2023-05-25T16:24:38.185Z,100.00
2023-05-25T16:27:05.009Z,100.00
2023-05-25T16:29:31.410Z,100.00
2023-05-25T16:31:58.006Z,100.00
2023-05-25T16:34:24.498Z,100.00
2023-05-25T16:36:51.045Z,100.00
2023-05-25T16:39:17.464Z,100.00
2023-05-25T16:41:44.114Z,100.00
2023-05-25T16:44:10.578Z,100.00
2023-05-25T16:46:37.209Z,100.00
2023-05-25T16:49:03.636Z,100.00
2023-05-25T16:51:31.175Z,100.00
2023-05-25T16:53:57.608Z,100.00
2023-05-25T16:56:24.034Z,100.00
2023-05-25T16:58:50.825Z,100.00
2023-05-25T17:01:17.362Z,100.00
2023-05-25T17:03:43.931Z,100.00
2023-05-25T17:06:10.200Z,100.00
2023-05-25T17:08:37.085Z,100.00
2023-05-25T17:11:03.852Z,100.00
2023-05-25T17:13:30.303Z,100.00
2023-05-25T17:15:57.145Z,100.00
2023-05-25T17:18:23.603Z,100.00
2023-05-25T17:20:50.064Z,100.00
2023-05-25T17:23:16.503Z,100.00
2023-05-25T17:25:43.205Z,100.00
2023-05-25T17:28:09.511Z,100.00
2023-05-25T17:30:35.966Z,100.00
2023-05-25T17:33:02.573Z,100.00
2023-05-25T17:35:28.917Z,100.00
2023-05-25T17:37:55.402Z,100.00
2023-05-25T17:40:21.849Z,100.00
2023-05-25T17:42:48.281Z,100.00
2023-05-25T17:45:15.936Z,100.00
2023-05-25T17:47:42.356Z,100.00
2023-05-25T17:50:08.807Z,100.00
2023-05-25T17:52:35.304Z,100.00
2023-05-25T17:55:01.797Z,100.00
2023-05-25T17:57:28.197Z,100.00
2023-05-25T17:59:54.711Z,100.00
2023-05-25T18:02:21.602Z,100.00
2023-05-25T18:04:47.812Z,100.00
2023-05-25T18:07:14.287Z,100.00
2023-05-25T18:09:41.715Z,100.00
2023-05-25T18:12:08.433Z,100.00
2023-05-25T18:14:34.895Z,100.00
2023-05-25T18:17:01.488Z,100.00
2023-05-25T18:19:27.841Z,100.00
2023-05-25T18:21:54.340Z,100.00
2023-05-25T18:24:20.790Z,100.00
2023-05-25T18:26:47.235Z,100.00
2023-05-25T18:29:13.713Z,100.00
2023-05-25T18:31:40.186Z,100.00
2023-05-25T18:34:06.603Z,100.00
2023-05-25T18:36:35.474Z,100.00
2023-05-25T18:39:01.971Z,100.00
2023-05-25T18:41:28.475Z,100.00
2023-05-25T18:43:54.900Z,100.00
2023-05-25T18:46:21.395Z,100.00
2023-05-25T18:48:47.801Z,100.00
2023-05-25T18:51:14.263Z,100.00
2023-05-25T18:53:40.963Z,100.00
2023-05-25T18:56:07.459Z,100.00
2023-05-25T18:58:33.936Z,100.00
2023-05-25T19:01:00.403Z,100.00
2023-05-25T19:03:26.917Z,100.00
2023-05-25T19:05:53.336Z,100.00
2023-05-25T19:08:21.857Z,100.00
2023-05-25T19:10:48.345Z,100.00
2023-05-25T19:13:14.779Z,100.00
2023-05-25T19:15:42.685Z,100.00
2023-05-25T19:18:08.977Z,100.00
2023-05-25T19:20:35.412Z,100.00
2023-05-25T19:23:01.781Z,100.00
2023-05-25T19:25:28.363Z,100.00
2023-05-25T19:27:54.788Z,100.00
2023-05-25T19:30:21.248Z,100.00
2023-05-25T19:32:47.731Z,100.00
2023-05-25T19:35:14.222Z,100.00
2023-05-25T19:37:40.633Z,100.00
2023-05-25T19:40:07.077Z,100.00
2023-05-25T19:42:33.544Z,100.00
2023-05-25T19:45:00.136Z,100.00
2023-05-25T19:47:28.262Z,100.00
2023-05-25T19:49:53.534Z,100.00
2023-05-25T19:52:19.992Z,100.00
2023-05-25T19:54:46.439Z,100.00
2023-05-25T19:57:12.876Z,100.00
2023-05-25T19:59:39.274Z,100.00
2023-05-25T20:02:05.766Z,100.00
2023-05-25T20:04:32.312Z,100.00
2023-05-25T20:06:58.786Z,100.00
2023-05-25T20:09:25.390Z,100.00
2023-05-25T20:11:51.832Z,100.00
2023-05-25T20:14:20.113Z,100.00
2023-05-25T20:16:47.133Z,100.00
2023-05-25T20:19:13.550Z,100.00
2023-05-25T20:21:40.245Z,100.00
2023-05-25T20:24:06.766Z,100.00
2023-05-25T20:26:37.189Z,100.00
2023-05-25T20:29:03.708Z,100.00
2023-05-25T20:31:30.187Z,100.00
2023-05-25T20:33:56.672Z,100.00
2023-05-25T20:36:25.556Z,100.00
2023-05-25T20:38:52.082Z,100.00
2023-05-25T20:41:18.497Z,100.00
2023-05-25T20:43:44.986Z,100.00
2023-05-25T20:46:11.491Z,100.00
2023-05-25T20:48:40.805Z,100.00
2023-05-25T20:51:05.583Z,100.00
2023-05-25T20:53:32.052Z,100.00
2023-05-25T20:55:58.535Z,100.00
2023-05-25T20:58:25.086Z,100.00
2023-05-25T21:00:51.612Z,100.00
2023-05-25T21:03:18.193Z,100.00
2023-05-25T21:05:44.889Z,100.00
2023-05-25T21:08:11.217Z,100.00
2023-05-25T21:10:37.650Z,100.00
2023-05-25T21:13:04.200Z,100.00
2023-05-25T21:15:30.642Z,100.00
2023-05-25T21:17:57.096Z,100.00
2023-05-25T21:20:23.632Z,100.00
2023-05-25T21:22:50.046Z,100.00
2023-05-25T21:25:16.458Z,100.00
2023-05-25T21:27:42.926Z,100.00
2023-05-25T21:30:09.437Z,100.00
2023-05-25T21:32:35.935Z,100.00
2023-05-25T21:35:02.390Z,100.00
2023-05-25T21:37:28.845Z,100.00
2023-05-25T21:39:55.576Z,100.00
2023-05-25T21:42:22.111Z,100.00
2023-05-25T21:44:48.510Z,100.00
2023-05-25T21:47:15.053Z,100.00
2023-05-25T21:49:41.422Z,100.00
2023-05-25T21:52:08.374Z,100.00
2023-05-25T21:54:34.787Z,100.00
2023-05-25T21:57:01.210Z,100.00
2023-05-25T21:59:27.785Z,100.00
2023-05-25T22:01:54.248Z,100.00
2023-05-25T22:04:20.681Z,100.00
2023-05-25T22:06:47.141Z,100.00
2023-05-25T22:09:13.577Z,100.00
2023-05-25T22:11:40.036Z,100.00
2023-05-25T22:14:06.565Z,100.00
2023-05-25T22:16:33.099Z,100.00
2023-05-25T22:18:59.505Z,100.00
2023-05-25T22:21:26.060Z,100.00
2023-05-25T22:23:52.505Z,100.00
2023-05-25T22:26:18.921Z,100.00
2023-05-25T22:28:45.336Z,100.00
2023-05-25T22:31:11.803Z,100.00
2023-05-25T22:33:38.220Z,100.00
2023-05-25T22:36:04.644Z,100.00
2023-05-25T22:38:31.112Z,100.00
2023-05-25T22:40:57.506Z,100.00
2023-05-25T22:43:23.942Z,100.00
2023-05-25T22:45:50.347Z,100.00
2023-05-25T22:48:16.806Z,100.00
2023-05-25T22:50:43.264Z,100.00
2023-05-25T22:53:09.736Z,100.00
2023-05-25T22:55:36.233Z,100.00
2023-05-25T22:58:02.678Z,100.00
2023-05-25T23:00:29.097Z,100.00
2023-05-25T23:02:55.590Z,100.00
2023-05-25T23:05:21.922Z,100.00
2023-05-25T23:07:48.344Z,100.00
2023-05-25T23:10:14.780Z,100.00
2023-05-25T23:12:41.242Z,100.00
2023-05-25T23:15:07.652Z,100.00
2023-05-25T23:17:34.145Z,100.00
2023-05-25T23:20:00.635Z,100.00
2023-05-25T23:22:27.084Z,100.00
2023-05-25T23:24:53.496Z,100.00
2023-05-25T23:27:19.956Z,100.00
2023-05-25T23:29:46.366Z,100.00
2023-05-25T23:32:12.819Z,100.00
2023-05-25T23:34:39.232Z,100.00
2023-05-25T23:37:06.580Z,100.00
2023-05-25T23:39:32.302Z,100.00
2023-05-25T23:41:58.713Z,100.00
2023-05-25T23:44:25.172Z,100.00
2023-05-25T23:46:51.727Z,100.00
2023-05-25T23:49:18.157Z,100.00
2023-05-25T23:51:44.646Z,100.00
2023-05-25T23:54:11.060Z,100.00
2023-05-25T23:56:37.522Z,100.00
2023-05-25T23:59:03.942Z,100.00
